sensor_id;sensor_type;location;lat;lon;timestamp;P1;durP1;ratioP1;P2;durP2;ratioP2
33836;SDS011;20140;49.356;8.812;2023-05-21T00:01:09;16.27;;;14.40;;
33836;SDS011;20140;49.356;8.812;2023-05-21T00:03:40;17.27;;;14.77;;
33836;SDS011;20140;49.356;8.812;2023-05-21T00:06:06;17.75;;;15.45;;
33836;SDS011;20140;49.356;8.812;2023-05-21T00:08:32;17.42;;;14.05;;
33836;SDS011;20140;49.356;8.812;2023-05-21T00:10:58;17.38;;;14.73;;
33836;SDS011;20140;49.356;8.812;2023-05-21T00:13:23;18.37;;;15.03;;
33836;SDS011;20140;49.356;8.812;2023-05-21T00:15:49;17.57;;;13.17;;
33836;SDS011;20140;49.356;8.812;2023-05-21T00:18:15;16.58;;;14.52;;
33836;SDS011;20140;49.356;8.812;2023-05-21T00:20:40;18.63;;;13.98;;
33836;SDS011;20140;49.356;8.812;2023-05-21T00:23:06;19.33;;;14.03;;
33836;SDS011;20140;49.356;8.812;2023-05-21T00:25:31;18.13;;;14.45;;
33836;SDS011;20140;49.356;8.812;2023-05-21T00:27:57;15.85;;;13.63;;
33836;SDS011;20140;49.356;8.812;2023-05-21T00:30:22;18.80;;;14.73;;
33836;SDS011;20140;49.356;8.812;2023-05-21T00:32:48;16.35;;;14.52;;
33836;SDS011;20140;49.356;8.812;2023-05-21T00:35:14;16.40;;;14.45;;
33836;SDS011;20140;49.356;8.812;2023-05-21T00:37:40;16.13;;;14.43;;
33836;SDS011;20140;49.356;8.812;2023-05-21T00:40:05;17.67;;;14.03;;
33836;SDS011;20140;49.356;8.812;2023-05-21T00:42:35;17.33;;;14.43;;
33836;SDS011;20140;49.356;8.812;2023-05-21T00:45:04;16.63;;;14.83;;
33836;SDS011;20140;49.356;8.812;2023-05-21T00:47:31;18.00;;;13.57;;
33836;SDS011;20140;49.356;8.812;2023-05-21T00:49:56;18.90;;;14.30;;
33836;SDS011;20140;49.356;8.812;2023-05-21T00:52:23;16.70;;;14.20;;
33836;SDS011;20140;49.356;8.812;2023-05-21T00:54:50;16.63;;;14.38;;
33836;SDS011;20140;49.356;8.812;2023-05-21T00:57:17;16.50;;;14.23;;
33836;SDS011;20140;49.356;8.812;2023-05-21T00:59:47;17.85;;;15.48;;
33836;SDS011;20140;49.356;8.812;2023-05-21T01:02:16;16.45;;;13.40;;
33836;SDS011;20140;49.356;8.812;2023-05-21T01:04:43;15.90;;;14.18;;
33836;SDS011;20140;49.356;8.812;2023-05-21T01:07:09;16.40;;;14.23;;
33836;SDS011;20140;49.356;8.812;2023-05-21T01:09:35;15.90;;;14.07;;
33836;SDS011;20140;49.356;8.812;2023-05-21T01:12:00;16.35;;;14.07;;
33836;SDS011;20140;49.356;8.812;2023-05-21T01:14:27;19.00;;;14.03;;
33836;SDS011;20140;49.356;8.812;2023-05-21T01:16:54;17.25;;;15.38;;
33836;SDS011;20140;49.356;8.812;2023-05-21T01:19:20;19.23;;;14.40;;
33836;SDS011;20140;49.356;8.812;2023-05-21T01:21:51;18.23;;;15.05;;
33836;SDS011;20140;49.356;8.812;2023-05-21T01:24:20;17.98;;;15.50;;
33836;SDS011;20140;49.356;8.812;2023-05-21T01:26:46;17.50;;;14.50;;
33836;SDS011;20140;49.356;8.812;2023-05-21T01:29:12;19.17;;;14.77;;
33836;SDS011;20140;49.356;8.812;2023-05-21T01:34:03;16.60;;;13.95;;
33836;SDS011;20140;49.356;8.812;2023-05-21T01:36:33;16.60;;;14.65;;
33836;SDS011;20140;49.356;8.812;2023-05-21T01:39:14;16.37;;;14.47;;
33836;SDS011;20140;49.356;8.812;2023-05-21T01:41:47;23.75;;;14.52;;
33836;SDS011;20140;49.356;8.812;2023-05-21T01:44:15;18.95;;;15.45;;
33836;SDS011;20140;49.356;8.812;2023-05-21T01:46:43;17.13;;;14.10;;
33836;SDS011;20140;49.356;8.812;2023-05-21T01:49:09;17.17;;;13.67;;
33836;SDS011;20140;49.356;8.812;2023-05-21T01:51:35;17.13;;;14.13;;
33836;SDS011;20140;49.356;8.812;2023-05-21T01:54:02;16.08;;;14.30;;
33836;SDS011;20140;49.356;8.812;2023-05-21T01:56:27;17.98;;;14.77;;
33836;SDS011;20140;49.356;8.812;2023-05-21T01:58:54;17.47;;;14.80;;
33836;SDS011;20140;49.356;8.812;2023-05-21T02:01:23;18.83;;;14.77;;
33836;SDS011;20140;49.356;8.812;2023-05-21T02:03:49;18.07;;;14.17;;
33836;SDS011;20140;49.356;8.812;2023-05-21T02:06:14;17.25;;;14.13;;
33836;SDS011;20140;49.356;8.812;2023-05-21T02:08:40;19.20;;;15.13;;
33836;SDS011;20140;49.356;8.812;2023-05-21T02:11:05;18.63;;;14.93;;
33836;SDS011;20140;49.356;8.812;2023-05-21T02:13:31;19.00;;;15.68;;
33836;SDS011;20140;49.356;8.812;2023-05-21T02:15:56;17.40;;;15.23;;
33836;SDS011;20140;49.356;8.812;2023-05-21T02:18:22;19.73;;;13.73;;
33836;SDS011;20140;49.356;8.812;2023-05-21T02:20:47;22.58;;;16.23;;
33836;SDS011;20140;49.356;8.812;2023-05-21T02:23:13;20.03;;;14.57;;
33836;SDS011;20140;49.356;8.812;2023-05-21T02:25:38;17.13;;;14.50;;
33836;SDS011;20140;49.356;8.812;2023-05-21T02:28:04;18.20;;;14.93;;
33836;SDS011;20140;49.356;8.812;2023-05-21T02:30:30;17.95;;;15.20;;
33836;SDS011;20140;49.356;8.812;2023-05-21T02:32:56;17.92;;;14.07;;
33836;SDS011;20140;49.356;8.812;2023-05-21T02:35:22;18.30;;;14.77;;
33836;SDS011;20140;49.356;8.812;2023-05-21T02:37:48;16.47;;;13.70;;
33836;SDS011;20140;49.356;8.812;2023-05-21T02:40:14;20.15;;;14.68;;
33836;SDS011;20140;49.356;8.812;2023-05-21T02:42:40;18.63;;;14.85;;
33836;SDS011;20140;49.356;8.812;2023-05-21T02:45:06;16.27;;;13.52;;
33836;SDS011;20140;49.356;8.812;2023-05-21T02:47:36;16.10;;;14.30;;
33836;SDS011;20140;49.356;8.812;2023-05-21T02:50:03;17.77;;;14.43;;
33836;SDS011;20140;49.356;8.812;2023-05-21T02:52:29;15.13;;;13.53;;
33836;SDS011;20140;49.356;8.812;2023-05-21T02:54:55;16.90;;;13.03;;
33836;SDS011;20140;49.356;8.812;2023-05-21T02:57:20;16.73;;;13.55;;
33836;SDS011;20140;49.356;8.812;2023-05-21T02:59:46;16.40;;;13.47;;
33836;SDS011;20140;49.356;8.812;2023-05-21T03:02:12;16.60;;;13.80;;
33836;SDS011;20140;49.356;8.812;2023-05-21T03:04:37;15.70;;;13.63;;
33836;SDS011;20140;49.356;8.812;2023-05-21T03:07:09;18.90;;;14.68;;
33836;SDS011;20140;49.356;8.812;2023-05-21T03:09:37;22.13;;;15.80;;
33836;SDS011;20140;49.356;8.812;2023-05-21T03:12:03;16.20;;;13.87;;
33836;SDS011;20140;49.356;8.812;2023-05-21T03:14:29;18.20;;;14.70;;
33836;SDS011;20140;49.356;8.812;2023-05-21T03:16:55;19.37;;;14.40;;
33836;SDS011;20140;49.356;8.812;2023-05-21T03:19:20;18.33;;;15.30;;
33836;SDS011;20140;49.356;8.812;2023-05-21T03:21:48;18.00;;;14.10;;
33836;SDS011;20140;49.356;8.812;2023-05-21T03:24:14;19.83;;;15.15;;
33836;SDS011;20140;49.356;8.812;2023-05-21T03:26:40;16.35;;;13.02;;
33836;SDS011;20140;49.356;8.812;2023-05-21T03:29:05;15.97;;;14.23;;
33836;SDS011;20140;49.356;8.812;2023-05-21T03:31:31;16.47;;;12.90;;
33836;SDS011;20140;49.356;8.812;2023-05-21T03:33:56;18.38;;;14.18;;
33836;SDS011;20140;49.356;8.812;2023-05-21T03:36:22;16.17;;;13.83;;
33836;SDS011;20140;49.356;8.812;2023-05-21T03:38:47;15.55;;;13.98;;
33836;SDS011;20140;49.356;8.812;2023-05-21T03:41:13;16.37;;;13.40;;
33836;SDS011;20140;49.356;8.812;2023-05-21T03:43:38;17.00;;;14.67;;
33836;SDS011;20140;49.356;8.812;2023-05-21T03:46:04;14.63;;;13.13;;
33836;SDS011;20140;49.356;8.812;2023-05-21T03:48:30;17.73;;;14.30;;
33836;SDS011;20140;49.356;8.812;2023-05-21T03:50:57;15.53;;;13.60;;
33836;SDS011;20140;49.356;8.812;2023-05-21T03:53:23;16.87;;;13.40;;
33836;SDS011;20140;49.356;8.812;2023-05-21T03:55:48;16.63;;;13.52;;
33836;SDS011;20140;49.356;8.812;2023-05-21T03:58:19;15.13;;;13.15;;
33836;SDS011;20140;49.356;8.812;2023-05-21T04:00:47;18.23;;;12.98;;
33836;SDS011;20140;49.356;8.812;2023-05-21T04:03:13;17.88;;;13.88;;
33836;SDS011;20140;49.356;8.812;2023-05-21T04:05:42;15.37;;;13.60;;
33836;SDS011;20140;49.356;8.812;2023-05-21T04:08:07;16.77;;;13.40;;
33836;SDS011;20140;49.356;8.812;2023-05-21T04:10:33;16.15;;;12.90;;
33836;SDS011;20140;49.356;8.812;2023-05-21T04:12:59;15.85;;;12.85;;
33836;SDS011;20140;49.356;8.812;2023-05-21T04:15:24;15.15;;;12.40;;
33836;SDS011;20140;49.356;8.812;2023-05-21T04:17:51;18.20;;;14.05;;
33836;SDS011;20140;49.356;8.812;2023-05-21T04:20:17;16.60;;;13.20;;
33836;SDS011;20140;49.356;8.812;2023-05-21T04:22:42;14.90;;;13.30;;
33836;SDS011;20140;49.356;8.812;2023-05-21T04:25:08;17.10;;;13.15;;
33836;SDS011;20140;49.356;8.812;2023-05-21T04:27:34;13.80;;;12.30;;
33836;SDS011;20140;49.356;8.812;2023-05-21T04:30:00;15.52;;;12.82;;
33836;SDS011;20140;49.356;8.812;2023-05-21T04:32:27;16.00;;;13.32;;
33836;SDS011;20140;49.356;8.812;2023-05-21T04:34:55;18.08;;;13.82;;
33836;SDS011;20140;49.356;8.812;2023-05-21T04:37:20;14.25;;;12.35;;
33836;SDS011;20140;49.356;8.812;2023-05-21T04:39:48;15.85;;;11.93;;
33836;SDS011;20140;49.356;8.812;2023-05-21T04:42:14;15.60;;;13.40;;
33836;SDS011;20140;49.356;8.812;2023-05-21T04:44:39;15.23;;;12.27;;
33836;SDS011;20140;49.356;8.812;2023-05-21T04:47:05;16.83;;;13.45;;
33836;SDS011;20140;49.356;8.812;2023-05-21T04:49:31;15.27;;;13.63;;
33836;SDS011;20140;49.356;8.812;2023-05-21T04:51:59;14.77;;;12.98;;
33836;SDS011;20140;49.356;8.812;2023-05-21T04:54:25;15.32;;;12.18;;
33836;SDS011;20140;49.356;8.812;2023-05-21T04:56:51;16.70;;;13.32;;
33836;SDS011;20140;49.356;8.812;2023-05-21T04:59:17;16.03;;;12.93;;
33836;SDS011;20140;49.356;8.812;2023-05-21T05:01:44;16.10;;;12.45;;
33836;SDS011;20140;49.356;8.812;2023-05-21T05:04:10;13.93;;;11.73;;
33836;SDS011;20140;49.356;8.812;2023-05-21T05:06:35;14.73;;;13.13;;
33836;SDS011;20140;49.356;8.812;2023-05-21T05:09:01;14.90;;;12.27;;
33836;SDS011;20140;49.356;8.812;2023-05-21T05:11:26;14.35;;;12.90;;
33836;SDS011;20140;49.356;8.812;2023-05-21T05:13:52;15.50;;;12.87;;
33836;SDS011;20140;49.356;8.812;2023-05-21T05:16:17;14.52;;;12.20;;
33836;SDS011;20140;49.356;8.812;2023-05-21T05:18:49;17.75;;;13.05;;
33836;SDS011;20140;49.356;8.812;2023-05-21T05:21:16;14.37;;;12.43;;
33836;SDS011;20140;49.356;8.812;2023-05-21T05:23:41;14.17;;;12.60;;
33836;SDS011;20140;49.356;8.812;2023-05-21T05:26:07;14.85;;;13.25;;
33836;SDS011;20140;49.356;8.812;2023-05-21T05:28:35;15.13;;;12.17;;
33836;SDS011;20140;49.356;8.812;2023-05-21T05:31:00;14.90;;;12.17;;
33836;SDS011;20140;49.356;8.812;2023-05-21T05:33:26;15.13;;;11.95;;
33836;SDS011;20140;49.356;8.812;2023-05-21T05:35:51;14.77;;;13.10;;
33836;SDS011;20140;49.356;8.812;2023-05-21T05:38:17;13.67;;;11.77;;
33836;SDS011;20140;49.356;8.812;2023-05-21T05:40:42;15.45;;;12.30;;
33836;SDS011;20140;49.356;8.812;2023-05-21T05:43:08;14.67;;;12.77;;
33836;SDS011;20140;49.356;8.812;2023-05-21T05:45:33;14.37;;;12.67;;
33836;SDS011;20140;49.356;8.812;2023-05-21T05:47:59;14.43;;;11.23;;
33836;SDS011;20140;49.356;8.812;2023-05-21T05:50:25;14.97;;;11.40;;
33836;SDS011;20140;49.356;8.812;2023-05-21T05:52:51;14.82;;;12.07;;
33836;SDS011;20140;49.356;8.812;2023-05-21T05:55:16;13.80;;;12.40;;
33836;SDS011;20140;49.356;8.812;2023-05-21T05:57:42;13.83;;;12.07;;
33836;SDS011;20140;49.356;8.812;2023-05-21T06:00:08;14.90;;;13.37;;
33836;SDS011;20140;49.356;8.812;2023-05-21T06:02:37;11.95;;;10.75;;
33836;SDS011;20140;49.356;8.812;2023-05-21T06:05:02;15.13;;;12.63;;
33836;SDS011;20140;49.356;8.812;2023-05-21T06:07:30;12.90;;;11.10;;
33836;SDS011;20140;49.356;8.812;2023-05-21T06:09:56;13.93;;;11.00;;
33836;SDS011;20140;49.356;8.812;2023-05-21T06:12:22;13.47;;;12.07;;
33836;SDS011;20140;49.356;8.812;2023-05-21T06:14:47;17.63;;;12.57;;
33836;SDS011;20140;49.356;8.812;2023-05-21T06:17:13;14.07;;;11.90;;
33836;SDS011;20140;49.356;8.812;2023-05-21T06:19:39;12.83;;;11.37;;
33836;SDS011;20140;49.356;8.812;2023-05-21T06:22:04;14.73;;;11.60;;
33836;SDS011;20140;49.356;8.812;2023-05-21T06:24:30;14.45;;;12.30;;
33836;SDS011;20140;49.356;8.812;2023-05-21T06:26:55;14.07;;;12.03;;
33836;SDS011;20140;49.356;8.812;2023-05-21T06:29:21;12.60;;;11.27;;
33836;SDS011;20140;49.356;8.812;2023-05-21T06:31:46;12.97;;;11.60;;
33836;SDS011;20140;49.356;8.812;2023-05-21T06:34:12;14.77;;;13.13;;
33836;SDS011;20140;49.356;8.812;2023-05-21T06:36:38;15.03;;;11.87;;
33836;SDS011;20140;49.356;8.812;2023-05-21T06:39:05;13.15;;;11.75;;
33836;SDS011;20140;49.356;8.812;2023-05-21T06:41:30;13.90;;;12.27;;
33836;SDS011;20140;49.356;8.812;2023-05-21T06:43:56;13.30;;;11.57;;
33836;SDS011;20140;49.356;8.812;2023-05-21T06:46:21;13.63;;;11.90;;
33836;SDS011;20140;49.356;8.812;2023-05-21T06:48:47;12.67;;;11.47;;
33836;SDS011;20140;49.356;8.812;2023-05-21T06:51:12;16.70;;;12.97;;
33836;SDS011;20140;49.356;8.812;2023-05-21T06:53:38;14.05;;;12.27;;
33836;SDS011;20140;49.356;8.812;2023-05-21T06:56:04;13.20;;;11.80;;
33836;SDS011;20140;49.356;8.812;2023-05-21T06:58:29;17.90;;;12.37;;
33836;SDS011;20140;49.356;8.812;2023-05-21T07:00:58;14.23;;;12.15;;
33836;SDS011;20140;49.356;8.812;2023-05-21T07:03:24;14.10;;;12.05;;
33836;SDS011;20140;49.356;8.812;2023-05-21T07:05:51;15.35;;;12.70;;
33836;SDS011;20140;49.356;8.812;2023-05-21T07:08:17;14.18;;;11.90;;
33836;SDS011;20140;49.356;8.812;2023-05-21T07:10:43;13.50;;;10.60;;
33836;SDS011;20140;49.356;8.812;2023-05-21T07:13:10;12.88;;;11.50;;
33836;SDS011;20140;49.356;8.812;2023-05-21T07:15:36;12.48;;;11.02;;
33836;SDS011;20140;49.356;8.812;2023-05-21T07:18:01;12.40;;;11.07;;
33836;SDS011;20140;49.356;8.812;2023-05-21T07:20:27;12.10;;;10.63;;
33836;SDS011;20140;49.356;8.812;2023-05-21T07:22:53;12.40;;;10.93;;
33836;SDS011;20140;49.356;8.812;2023-05-21T07:25:18;13.53;;;10.27;;
33836;SDS011;20140;49.356;8.812;2023-05-21T07:27:44;11.97;;;10.30;;
33836;SDS011;20140;49.356;8.812;2023-05-21T07:30:10;13.20;;;10.73;;
33836;SDS011;20140;49.356;8.812;2023-05-21T07:32:35;12.63;;;11.43;;
33836;SDS011;20140;49.356;8.812;2023-05-21T07:35:01;12.57;;;11.10;;
33836;SDS011;20140;49.356;8.812;2023-05-21T07:37:26;14.13;;;11.02;;
33836;SDS011;20140;49.356;8.812;2023-05-21T07:39:53;12.13;;;10.55;;
33836;SDS011;20140;49.356;8.812;2023-05-21T07:42:20;12.20;;;10.67;;
33836;SDS011;20140;49.356;8.812;2023-05-21T07:44:46;12.47;;;10.97;;
33836;SDS011;20140;49.356;8.812;2023-05-21T07:47:11;11.17;;;9.67;;
33836;SDS011;20140;49.356;8.812;2023-05-21T07:49:36;13.50;;;11.00;;
33836;SDS011;20140;49.356;8.812;2023-05-21T07:52:02;10.47;;;9.30;;
33836;SDS011;20140;49.356;8.812;2023-05-21T07:54:28;11.97;;;10.13;;
33836;SDS011;20140;49.356;8.812;2023-05-21T07:56:53;13.40;;;10.95;;
33836;SDS011;20140;49.356;8.812;2023-05-21T07:59:19;10.60;;;9.43;;
33836;SDS011;20140;49.356;8.812;2023-05-21T08:01:44;11.32;;;9.45;;
33836;SDS011;20140;49.356;8.812;2023-05-21T08:04:10;11.30;;;10.13;;
33836;SDS011;20140;49.356;8.812;2023-05-21T08:06:36;12.43;;;10.32;;
33836;SDS011;20140;49.356;8.812;2023-05-21T08:09:02;11.47;;;9.17;;
33836;SDS011;20140;49.356;8.812;2023-05-21T08:11:28;10.88;;;9.77;;
33836;SDS011;20140;49.356;8.812;2023-05-21T08:13:57;11.07;;;9.98;;
33836;SDS011;20140;49.356;8.812;2023-05-21T08:16:22;10.68;;;9.48;;
33836;SDS011;20140;49.356;8.812;2023-05-21T08:18:48;10.63;;;9.53;;
33836;SDS011;20140;49.356;8.812;2023-05-21T08:21:14;11.15;;;9.32;;
33836;SDS011;20140;49.356;8.812;2023-05-21T08:23:40;9.90;;;8.48;;
33836;SDS011;20140;49.356;8.812;2023-05-21T08:26:06;10.27;;;9.00;;
33836;SDS011;20140;49.356;8.812;2023-05-21T08:28:32;10.80;;;8.70;;
33836;SDS011;20140;49.356;8.812;2023-05-21T08:30:59;11.38;;;9.02;;
33836;SDS011;20140;49.356;8.812;2023-05-21T08:33:25;10.60;;;8.70;;
33836;SDS011;20140;49.356;8.812;2023-05-21T08:35:51;9.35;;;8.45;;
33836;SDS011;20140;49.356;8.812;2023-05-21T08:38:17;10.40;;;9.37;;
33836;SDS011;20140;49.356;8.812;2023-05-21T08:40:42;9.55;;;8.60;;
33836;SDS011;20140;49.356;8.812;2023-05-21T08:43:09;9.27;;;8.23;;
33836;SDS011;20140;49.356;8.812;2023-05-21T08:45:37;9.55;;;8.30;;
33836;SDS011;20140;49.356;8.812;2023-05-21T08:48:07;11.68;;;9.88;;
33836;SDS011;20140;49.356;8.812;2023-05-21T08:50:35;11.90;;;9.90;;
33836;SDS011;20140;49.356;8.812;2023-05-21T08:53:01;10.27;;;9.23;;
33836;SDS011;20140;49.356;8.812;2023-05-21T08:55:26;10.43;;;8.65;;
33836;SDS011;20140;49.356;8.812;2023-05-21T08:57:52;10.50;;;8.70;;
33836;SDS011;20140;49.356;8.812;2023-05-21T09:00:18;9.77;;;8.80;;
33836;SDS011;20140;49.356;8.812;2023-05-21T09:02:48;9.75;;;8.75;;
33836;SDS011;20140;49.356;8.812;2023-05-21T09:05:15;9.57;;;8.57;;
33836;SDS011;20140;49.356;8.812;2023-05-21T09:10:45;11.32;;;8.98;;
33836;SDS011;20140;49.356;8.812;2023-05-21T09:13:14;10.90;;;8.10;;
33836;SDS011;20140;49.356;8.812;2023-05-21T09:15:41;10.30;;;9.15;;
33836;SDS011;20140;49.356;8.812;2023-05-21T09:18:07;13.35;;;9.85;;
33836;SDS011;20140;49.356;8.812;2023-05-21T09:20:33;9.55;;;8.50;;
33836;SDS011;20140;49.356;8.812;2023-05-21T09:23:02;9.67;;;8.63;;
33836;SDS011;20140;49.356;8.812;2023-05-21T09:25:30;10.57;;;8.60;;
33836;SDS011;20140;49.356;8.812;2023-05-21T09:27:56;9.73;;;8.77;;
33836;SDS011;20140;49.356;8.812;2023-05-21T09:30:22;9.80;;;8.75;;
33836;SDS011;20140;49.356;8.812;2023-05-21T09:32:52;12.85;;;9.02;;
33836;SDS011;20140;49.356;8.812;2023-05-21T09:35:21;10.63;;;9.50;;
33836;SDS011;20140;49.356;8.812;2023-05-21T09:37:48;11.48;;;8.75;;
33836;SDS011;20140;49.356;8.812;2023-05-21T09:40:15;10.23;;;8.52;;
33836;SDS011;20140;49.356;8.812;2023-05-21T09:42:46;9.03;;;8.00;;
33836;SDS011;20140;49.356;8.812;2023-05-21T09:45:11;11.38;;;8.90;;
33836;SDS011;20140;49.356;8.812;2023-05-21T09:47:41;9.40;;;8.38;;
33836;SDS011;20140;49.356;8.812;2023-05-21T09:50:08;10.07;;;8.98;;
33836;SDS011;20140;49.356;8.812;2023-05-21T09:52:35;9.35;;;8.52;;
33836;SDS011;20140;49.356;8.812;2023-05-21T09:55:02;10.77;;;9.20;;
33836;SDS011;20140;49.356;8.812;2023-05-21T09:57:31;10.50;;;9.50;;
33836;SDS011;20140;49.356;8.812;2023-05-21T09:59:56;9.33;;;8.13;;
33836;SDS011;20140;49.356;8.812;2023-05-21T10:02:22;10.60;;;9.60;;
33836;SDS011;20140;49.356;8.812;2023-05-21T10:04:50;10.98;;;8.80;;
33836;SDS011;20140;49.356;8.812;2023-05-21T10:07:18;9.43;;;8.55;;
33836;SDS011;20140;49.356;8.812;2023-05-21T10:09:49;10.55;;;9.45;;
33836;SDS011;20140;49.356;8.812;2023-05-21T10:12:22;9.67;;;8.67;;
33836;SDS011;20140;49.356;8.812;2023-05-21T10:14:59;10.37;;;9.30;;
33836;SDS011;20140;49.356;8.812;2023-05-21T10:17:27;10.32;;;9.23;;
33836;SDS011;20140;49.356;8.812;2023-05-21T10:19:54;12.07;;;9.73;;
33836;SDS011;20140;49.356;8.812;2023-05-21T10:22:24;9.93;;;9.02;;
33836;SDS011;20140;49.356;8.812;2023-05-21T10:24:51;10.27;;;9.18;;
33836;SDS011;20140;49.356;8.812;2023-05-21T10:27:17;10.40;;;9.32;;
33836;SDS011;20140;49.356;8.812;2023-05-21T10:29:44;10.00;;;9.10;;
33836;SDS011;20140;49.356;8.812;2023-05-21T10:32:14;10.82;;;9.73;;
33836;SDS011;20140;49.356;8.812;2023-05-21T10:34:41;11.02;;;8.90;;
33836;SDS011;20140;49.356;8.812;2023-05-21T10:37:08;10.82;;;9.10;;
33836;SDS011;20140;49.356;8.812;2023-05-21T10:39:34;11.70;;;9.77;;
33836;SDS011;20140;49.356;8.812;2023-05-21T10:50:13;11.00;;;9.85;;
33836;SDS011;20140;49.356;8.812;2023-05-21T10:52:51;11.60;;;9.90;;
33836;SDS011;20140;49.356;8.812;2023-05-21T10:58:18;10.70;;;9.57;;
33836;SDS011;20140;49.356;8.812;2023-05-21T11:01:05;11.25;;;9.55;;
33836;SDS011;20140;49.356;8.812;2023-05-21T11:03:31;10.82;;;9.80;;
33836;SDS011;20140;49.356;8.812;2023-05-21T11:05:58;10.48;;;8.88;;
33836;SDS011;20140;49.356;8.812;2023-05-21T11:08:27;10.43;;;9.43;;
33836;SDS011;20140;49.356;8.812;2023-05-21T11:10:56;11.95;;;9.57;;
33836;SDS011;20140;49.356;8.812;2023-05-21T11:13:23;12.05;;;10.25;;
33836;SDS011;20140;49.356;8.812;2023-05-21T11:18:21;10.10;;;9.20;;
33836;SDS011;20140;49.356;8.812;2023-05-21T11:20:50;10.90;;;9.80;;
33836;SDS011;20140;49.356;8.812;2023-05-21T11:23:17;10.60;;;9.50;;
33836;SDS011;20140;49.356;8.812;2023-05-21T11:25:42;10.68;;;9.60;;
33836;SDS011;20140;49.356;8.812;2023-05-21T11:28:08;9.48;;;8.57;;
33836;SDS011;20140;49.356;8.812;2023-05-21T11:30:33;12.90;;;9.37;;
33836;SDS011;20140;49.356;8.812;2023-05-21T11:38:08;9.98;;;9.07;;
33836;SDS011;20140;49.356;8.812;2023-05-21T11:40:34;10.50;;;9.40;;
33836;SDS011;20140;49.356;8.812;2023-05-21T11:43:00;9.63;;;8.65;;
33836;SDS011;20140;49.356;8.812;2023-05-21T11:45:30;9.73;;;8.83;;
33836;SDS011;20140;49.356;8.812;2023-05-21T11:47:56;9.88;;;8.88;;
33836;SDS011;20140;49.356;8.812;2023-05-21T11:50:22;9.00;;;8.10;;
33836;SDS011;20140;49.356;8.812;2023-05-21T11:52:48;8.50;;;7.60;;
33836;SDS011;20140;49.356;8.812;2023-05-21T11:55:14;8.80;;;8.00;;
33836;SDS011;20140;49.356;8.812;2023-05-21T11:57:46;9.27;;;8.38;;
33836;SDS011;20140;49.356;8.812;2023-05-21T12:00:14;8.68;;;7.80;;
33836;SDS011;20140;49.356;8.812;2023-05-21T12:02:48;8.73;;;7.78;;
33836;SDS011;20140;49.356;8.812;2023-05-21T12:05:15;11.63;;;8.25;;
33836;SDS011;20140;49.356;8.812;2023-05-21T12:07:41;8.55;;;7.70;;
33836;SDS011;20140;49.356;8.812;2023-05-21T12:10:10;9.45;;;8.55;;
33836;SDS011;20140;49.356;8.812;2023-05-21T12:12:36;9.93;;;8.38;;
33836;SDS011;20140;49.356;8.812;2023-05-21T12:15:01;8.93;;;8.02;;
33836;SDS011;20140;49.356;8.812;2023-05-21T12:17:28;9.45;;;8.27;;
33836;SDS011;20140;49.356;8.812;2023-05-21T12:19:55;9.13;;;8.32;;
33836;SDS011;20140;49.356;8.812;2023-05-21T12:22:24;9.23;;;8.18;;
33836;SDS011;20140;49.356;8.812;2023-05-21T12:24:51;9.10;;;8.20;;
33836;SDS011;20140;49.356;8.812;2023-05-21T12:27:17;9.82;;;8.82;;
33836;SDS011;20140;49.356;8.812;2023-05-21T12:29:46;10.15;;;8.50;;
33836;SDS011;20140;49.356;8.812;2023-05-21T12:32:14;9.88;;;8.68;;
33836;SDS011;20140;49.356;8.812;2023-05-21T12:34:43;10.35;;;9.35;;
33836;SDS011;20140;49.356;8.812;2023-05-21T12:37:21;10.25;;;9.35;;
33836;SDS011;20140;49.356;8.812;2023-05-21T12:39:48;9.40;;;8.50;;
33836;SDS011;20140;49.356;8.812;2023-05-21T12:42:14;8.95;;;8.15;;
33836;SDS011;20140;49.356;8.812;2023-05-21T12:44:42;9.87;;;8.90;;
33836;SDS011;20140;49.356;8.812;2023-05-21T12:47:09;10.13;;;9.13;;
33836;SDS011;20140;49.356;8.812;2023-05-21T12:49:36;10.32;;;9.25;;
33836;SDS011;20140;49.356;8.812;2023-05-21T12:52:04;9.85;;;8.93;;
33836;SDS011;20140;49.356;8.812;2023-05-21T12:54:34;10.60;;;9.57;;
33836;SDS011;20140;49.356;8.812;2023-05-21T12:57:08;9.85;;;8.88;;
33836;SDS011;20140;49.356;8.812;2023-05-21T12:59:45;11.73;;;9.23;;
33836;SDS011;20140;49.356;8.812;2023-05-21T13:02:13;13.65;;;11.77;;
33836;SDS011;20140;49.356;8.812;2023-05-21T13:04:39;11.10;;;10.13;;
33836;SDS011;20140;49.356;8.812;2023-05-21T13:07:06;10.68;;;9.68;;
33836;SDS011;20140;49.356;8.812;2023-05-21T13:09:31;11.07;;;8.90;;
33836;SDS011;20140;49.356;8.812;2023-05-21T13:11:57;10.57;;;9.55;;
33836;SDS011;20140;49.356;8.812;2023-05-21T13:14:24;9.55;;;8.65;;
33836;SDS011;20140;49.356;8.812;2023-05-21T13:16:50;9.73;;;8.80;;
33836;SDS011;20140;49.356;8.812;2023-05-21T13:19:15;10.18;;;9.27;;
33836;SDS011;20140;49.356;8.812;2023-05-21T13:21:41;9.80;;;8.80;;
33836;SDS011;20140;49.356;8.812;2023-05-21T13:24:06;9.77;;;8.87;;
33836;SDS011;20140;49.356;8.812;2023-05-21T13:26:32;10.45;;;9.43;;
33836;SDS011;20140;49.356;8.812;2023-05-21T13:28:58;9.63;;;8.63;;
33836;SDS011;20140;49.356;8.812;2023-05-21T13:31:23;10.43;;;8.87;;
33836;SDS011;20140;49.356;8.812;2023-05-21T13:33:49;10.80;;;9.80;;
33836;SDS011;20140;49.356;8.812;2023-05-21T13:36:14;9.80;;;8.80;;
33836;SDS011;20140;49.356;8.812;2023-05-21T13:38:40;10.57;;;9.57;;
33836;SDS011;20140;49.356;8.812;2023-05-21T13:41:05;9.85;;;8.95;;
33836;SDS011;20140;49.356;8.812;2023-05-21T13:43:31;9.73;;;8.83;;
33836;SDS011;20140;49.356;8.812;2023-05-21T13:45:56;9.83;;;8.93;;
33836;SDS011;20140;49.356;8.812;2023-05-21T13:48:22;9.33;;;8.53;;
33836;SDS011;20140;49.356;8.812;2023-05-21T13:50:47;10.25;;;9.23;;
33836;SDS011;20140;49.356;8.812;2023-05-21T13:53:13;9.80;;;8.87;;
33836;SDS011;20140;49.356;8.812;2023-05-21T13:55:38;9.97;;;8.93;;
33836;SDS011;20140;49.356;8.812;2023-05-21T13:58:06;11.15;;;9.75;;
33836;SDS011;20140;49.356;8.812;2023-05-21T14:00:31;10.23;;;9.32;;
33836;SDS011;20140;49.356;8.812;2023-05-21T14:02:57;10.48;;;9.48;;
33836;SDS011;20140;49.356;8.812;2023-05-21T14:05:22;9.40;;;8.50;;
33836;SDS011;20140;49.356;8.812;2023-05-21T14:07:48;9.83;;;8.93;;
33836;SDS011;20140;49.356;8.812;2023-05-21T14:10:15;9.10;;;8.20;;
33836;SDS011;20140;49.356;8.812;2023-05-21T14:12:40;9.43;;;8.53;;
33836;SDS011;20140;49.356;8.812;2023-05-21T14:15:06;9.93;;;7.50;;
33836;SDS011;20140;49.356;8.812;2023-05-21T14:17:32;8.80;;;8.00;;
33836;SDS011;20140;49.356;8.812;2023-05-21T14:19:57;8.15;;;7.43;;
33836;SDS011;20140;49.356;8.812;2023-05-21T14:22:23;7.78;;;7.07;;
33836;SDS011;20140;49.356;8.812;2023-05-21T14:24:49;7.70;;;7.00;;
33836;SDS011;20140;49.356;8.812;2023-05-21T14:27:15;8.00;;;7.20;;
33836;SDS011;20140;49.356;8.812;2023-05-21T14:29:40;7.97;;;7.22;;
33836;SDS011;20140;49.356;8.812;2023-05-21T14:32:07;8.10;;;7.38;;
33836;SDS011;20140;49.356;8.812;2023-05-21T14:34:32;8.90;;;8.00;;
33836;SDS011;20140;49.356;8.812;2023-05-21T14:36:58;8.63;;;7.93;;
33836;SDS011;20140;49.356;8.812;2023-05-21T14:39:23;7.70;;;6.97;;
33836;SDS011;20140;49.356;8.812;2023-05-21T14:41:49;8.90;;;8.00;;
33836;SDS011;20140;49.356;8.812;2023-05-21T14:44:14;9.60;;;8.48;;
33836;SDS011;20140;49.356;8.812;2023-05-21T14:46:40;8.10;;;7.30;;
33836;SDS011;20140;49.356;8.812;2023-05-21T14:49:06;9.10;;;8.27;;
33836;SDS011;20140;49.356;8.812;2023-05-21T14:51:31;9.20;;;8.40;;